sensor_id;sensor_type;location;lat;lon;timestamp;pressure;altitude;pressure_sealevel;temperature;humidity
24306;BME280;12423;48.768;8.850;2022-09-03T00:00:33;96575.03;;;16.74;100.00
24306;BME280;12423;48.768;8.850;2022-09-03T00:02:50;96573.38;;;16.73;100.00
24306;BME280;12423;48.768;8.850;2022-09-03T00:07:16;96571.38;;;16.67;100.00
24306;BME280;12423;48.768;8.850;2022-09-03T00:09:27;96571.22;;;16.69;100.00
24306;BME280;12423;48.768;8.850;2022-09-03T00:11:34;96571.38;;;16.67;100.00
24306;BME280;12423;48.768;8.850;2022-09-03T00:13:43;96569.91;;;16.65;100.00
24306;BME280;12423;48.768;8.850;2022-09-03T00:15:45;96566.34;;;16.64;100.00
24306;BME280;12423;48.768;8.850;2022-09-03T00:17:54;96563.66;;;16.64;100.00
24306;BME280;12423;48.768;8.850;2022-09-03T00:20:07;96571.56;;;16.66;100.00
24306;BME280;12423;48.768;8.850;2022-09-03T00:22:18;96564.31;;;16.66;100.00
24306;BME280;12423;48.768;8.850;2022-09-03T00:24:22;96565.00;;;16.68;100.00
24306;BME280;12423;48.768;8.850;2022-09-03T00:26:27;96573.25;;;16.67;100.00
24306;BME280;12423;48.768;8.850;2022-09-03T00:28:37;96572.41;;;16.66;100.00
24306;BME280;12423;48.768;8.850;2022-09-03T00:30:41;96572.78;;;16.63;100.00
24306;BME280;12423;48.768;8.850;2022-09-03T00:33:06;96562.00;;;16.63;100.00
24306;BME280;12423;48.768;8.850;2022-09-03T00:35:19;96554.94;;;16.62;100.00
24306;BME280;12423;48.768;8.850;2022-09-03T00:37:22;96557.81;;;16.61;100.00
24306;BME280;12423;48.768;8.850;2022-09-03T00:39:25;96559.66;;;16.60;100.00
24306;BME280;12423;48.768;8.850;2022-09-03T00:41:32;96557.81;;;16.61;100.00
24306;BME280;12423;48.768;8.850;2022-09-03T00:43:48;96555.28;;;16.59;100.00
24306;BME280;12423;48.768;8.850;2022-09-03T00:46:04;96560.50;;;16.61;100.00
24306;BME280;12423;48.768;8.850;2022-09-03T00:48:26;96560.03;;;16.57;100.00
24306;BME280;12423;48.768;8.850;2022-09-03T00:51:05;96564.88;;;16.62;100.00
24306;BME280;12423;48.768;8.850;2022-09-03T00:53:11;96563.38;;;16.59;100.00
24306;BME280;12423;48.768;8.850;2022-09-03T01:00:10;96573.03;;;16.53;100.00
24306;BME280;12423;48.768;8.850;2022-09-03T01:02:35;96564.78;;;16.55;100.00
24306;BME280;12423;48.768;8.850;2022-09-03T01:04:48;96572.19;;;16.53;100.00
24306;BME280;12423;48.768;8.850;2022-09-03T01:09:22;96562.06;;;16.55;100.00
24306;BME280;12423;48.768;8.850;2022-09-03T01:11:51;96549.78;;;16.52;100.00
24306;BME280;12423;48.768;8.850;2022-09-03T01:14:14;96559.06;;;16.50;100.00
24306;BME280;12423;48.768;8.850;2022-09-03T01:16:33;96555.72;;;16.48;100.00
24306;BME280;12423;48.768;8.850;2022-09-03T01:18:41;96559.16;;;16.42;100.00
24306;BME280;12423;48.768;8.850;2022-09-03T01:20:53;96562.38;;;16.37;100.00
24306;BME280;12423;48.768;8.850;2022-09-03T01:23:22;96564.53;;;16.42;100.00
24306;BME280;12423;48.768;8.850;2022-09-03T01:25:41;96559.16;;;16.42;100.00
24306;BME280;12423;48.768;8.850;2022-09-03T01:28:10;96552.53;;;16.44;100.00
24306;BME280;12423;48.768;8.850;2022-09-03T01:30:18;96566.31;;;16.49;100.00
24306;BME280;12423;48.768;8.850;2022-09-03T01:32:43;96557.56;;;16.47;100.00
24306;BME280;12423;48.768;8.850;2022-09-03T01:39:07;96559.69;;;16.37;100.00
24306;BME280;12423;48.768;8.850;2022-09-03T01:44:05;96562.25;;;16.30;100.00
24306;BME280;12423;48.768;8.850;2022-09-03T01:46:24;96555.91;;;16.23;100.00
24306;BME280;12423;48.768;8.850;2022-09-03T01:48:36;96549.69;;;16.23;100.00
24306;BME280;12423;48.768;8.850;2022-09-03T01:55:20;96566.69;;;16.23;100.00
24306;BME280;12423;48.768;8.850;2022-09-03T01:57:41;96561.28;;;16.23;100.00
24306;BME280;12423;48.768;8.850;2022-09-03T02:00:03;96558.78;;;16.21;100.00
24306;BME280;12423;48.768;8.850;2022-09-03T02:02:19;96564.16;;;16.21;100.00
24306;BME280;12423;48.768;8.850;2022-09-03T02:04:23;96562.97;;;16.24;100.00
24306;BME280;12423;48.768;8.850;2022-09-03T02:06:29;96558.78;;;16.21;100.00
24306;BME280;12423;48.768;8.850;2022-09-03T02:08:33;96565.72;;;16.16;100.00
24306;BME280;12423;48.768;8.850;2022-09-03T02:10:44;96559.50;;;16.15;100.00
24306;BME280;12423;48.768;8.850;2022-09-03T02:13:01;96565.72;;;16.16;100.00
24306;BME280;12423;48.768;8.850;2022-09-03T02:15:09;96576.03;;;16.12;100.00
24306;BME280;12423;48.768;8.850;2022-09-03T02:17:12;96567.22;;;16.18;100.00
24306;BME280;12423;48.768;8.850;2022-09-03T02:19:14;96565.72;;;16.16;100.00
24306;BME280;12423;48.768;8.850;2022-09-03T02:21:19;96561.50;;;16.13;100.00
24306;BME280;12423;48.768;8.850;2022-09-03T02:23:22;96562.72;;;16.11;100.00
24306;BME280;12423;48.768;8.850;2022-09-03T02:25:29;96559.84;;;16.12;100.00
24306;BME280;12423;48.768;8.850;2022-09-03T02:27:31;96557.34;;;16.11;100.00
24306;BME280;12423;48.768;8.850;2022-09-03T02:29:32;96558.00;;;16.13;100.00
24306;BME280;12423;48.768;8.850;2022-09-03T02:31:33;96566.91;;;16.13;100.00
24306;BME280;12423;48.768;8.850;2022-09-03T02:33:39;96561.81;;;16.18;100.00
24306;BME280;12423;48.768;8.850;2022-09-03T02:35:41;96570.09;;;16.17;100.00
24306;BME280;12423;48.768;8.850;2022-09-03T02:37:43;96564.91;;;16.15;100.00
24306;BME280;12423;48.768;8.850;2022-09-03T02:39:44;96558.66;;;16.15;100.00
24306;BME280;12423;48.768;8.850;2022-09-03T02:41:53;96557.66;;;16.16;100.00
24306;BME280;12423;48.768;8.850;2022-09-03T02:46:04;96557.94;;;16.21;100.00
24306;BME280;12423;48.768;8.850;2022-09-03T02:48:08;96562.06;;;16.09;100.00
24306;BME280;12423;48.768;8.850;2022-09-03T02:50:10;96557.84;;;15.83;100.00
24306;BME280;12423;48.768;8.850;2022-09-03T02:52:11;96564.00;;;15.52;100.00
24306;BME280;12423;48.768;8.850;2022-09-03T02:54:12;96569.41;;;15.52;100.00
24306;BME280;12423;48.768;8.850;2022-09-03T02:56:13;96557.59;;;15.61;100.00
24306;BME280;12423;48.768;8.850;2022-09-03T02:58:14;96565.69;;;15.53;100.00
24306;BME280;12423;48.768;8.850;2022-09-03T03:00:16;96569.41;;;15.52;100.00
24306;BME280;12423;48.768;8.850;2022-09-03T03:02:17;96564.50;;;15.56;100.00
24306;BME280;12423;48.768;8.850;2022-09-03T03:04:18;96564.78;;;15.69;100.00
24306;BME280;12423;48.768;8.850;2022-09-03T03:06:19;96568.31;;;15.78;100.00
24306;BME280;12423;48.768;8.850;2022-09-03T03:08:23;96577.09;;;15.63;100.00
24306;BME280;12423;48.768;8.850;2022-09-03T03:10:25;96574.44;;;15.55;100.00
24306;BME280;12423;48.768;8.850;2022-09-03T03:12:26;96562.28;;;15.68;100.00
24306;BME280;12423;48.768;8.850;2022-09-03T03:14:27;96567.47;;;15.77;100.00
24306;BME280;12423;48.768;8.850;2022-09-03T03:16:28;96570.00;;;15.79;100.00
24306;BME280;12423;48.768;8.850;2022-09-03T03:18:29;96572.31;;;15.82;100.00
24306;BME280;12423;48.768;8.850;2022-09-03T03:20:30;96569.63;;;15.82;100.00
24306;BME280;12423;48.768;8.850;2022-09-03T03:22:31;96569.28;;;15.85;100.00
24306;BME280;12423;48.768;8.850;2022-09-03T03:24:32;96565.63;;;15.78;100.00
24306;BME280;12423;48.768;8.850;2022-09-03T03:26:33;96571.78;;;15.87;100.00
24306;BME280;12423;48.768;8.850;2022-09-03T03:28:34;96563.22;;;15.83;100.00
24306;BME280;12423;48.768;8.850;2022-09-03T03:30:37;96558.03;;;15.81;100.00
24306;BME280;12423;48.768;8.850;2022-09-03T03:32:39;96568.78;;;15.73;100.00
24306;BME280;12423;48.768;8.850;2022-09-03T03:34:40;96565.44;;;15.79;100.00
24306;BME280;12423;48.768;8.850;2022-09-03T03:36:41;96563.56;;;15.80;100.00
24306;BME280;12423;48.768;8.850;2022-09-03T03:38:43;96565.94;;;15.83;100.00
24306;BME280;12423;48.768;8.850;2022-09-03T03:40:44;96565.56;;;15.86;100.00
24306;BME280;12423;48.768;8.850;2022-09-03T03:42:45;96564.91;;;15.84;100.00
24306;BME280;12423;48.768;8.850;2022-09-03T03:44:46;96568.63;;;15.75;100.00
24306;BME280;12423;48.768;8.850;2022-09-03T03:46:47;96570.81;;;15.79;100.00
24306;BME280;12423;48.768;8.850;2022-09-03T03:48:49;96568.31;;;15.78;100.00
24306;BME280;12423;48.768;8.850;2022-09-03T03:50:51;96565.78;;;15.76;100.00
24306;BME280;12423;48.768;8.850;2022-09-03T03:52:52;96579.75;;;15.72;100.00
24306;BME280;12423;48.768;8.850;2022-09-03T03:54:53;96578.13;;;15.62;100.00
24306;BME280;12423;48.768;8.850;2022-09-03T03:56:54;96591.06;;;15.59;100.00
24306;BME280;12423;48.768;8.850;2022-09-03T03:58:55;96584.56;;;15.45;100.00
24306;BME280;12423;48.768;8.850;2022-09-03T04:01:05;96586.25;;;15.46;100.00
24306;BME280;12423;48.768;8.850;2022-09-03T04:03:07;96581.53;;;15.48;100.00
24306;BME280;12423;48.768;8.850;2022-09-03T04:05:08;96586.22;;;15.54;100.00
24306;BME280;12423;48.768;8.850;2022-09-03T04:07:09;96580.13;;;15.60;100.00
24306;BME280;12423;48.768;8.850;2022-09-03T04:09:10;96577.75;;;15.65;100.00
24306;BME280;12423;48.768;8.850;2022-09-03T04:11:13;96577.41;;;15.69;100.00
24306;BME280;12423;48.768;8.850;2022-09-03T04:13:15;96574.88;;;15.67;100.00
24306;BME280;12423;48.768;8.850;2022-09-03T04:15:16;96580.78;;;15.71;100.00
24306;BME280;12423;48.768;8.850;2022-09-03T04:17:17;96574.69;;;15.69;100.00
24306;BME280;12423;48.768;8.850;2022-09-03T04:19:17;96570.66;;;15.73;100.00
24306;BME280;12423;48.768;8.850;2022-09-03T04:21:21;96574.34;;;15.72;100.00
24306;BME280;12423;48.768;8.850;2022-09-03T04:23:22;96567.31;;;15.71;100.00
24306;BME280;12423;48.768;8.850;2022-09-03T04:25:23;96574.19;;;15.73;100.00
24306;BME280;12423;48.768;8.850;2022-09-03T04:27:24;96573.03;;;15.76;100.00
24306;BME280;12423;48.768;8.850;2022-09-03T04:29:25;96568.13;;;15.79;100.00
24306;BME280;12423;48.768;8.850;2022-09-03T04:31:26;96569.31;;;15.77;100.00
24306;BME280;12423;48.768;8.850;2022-09-03T04:33:28;96579.72;;;15.80;100.00
24306;BME280;12423;48.768;8.850;2022-09-03T04:35:30;96573.16;;;15.82;100.00
24306;BME280;12423;48.768;8.850;2022-09-03T04:37:31;96574.19;;;15.81;100.00
24306;BME280;12423;48.768;8.850;2022-09-03T04:39:32;96574.81;;;15.83;100.00
24306;BME280;12423;48.768;8.850;2022-09-03T04:41:33;96574.19;;;15.81;100.00
24306;BME280;12423;48.768;8.850;2022-09-03T04:43:35;96573.34;;;15.81;100.00
24306;BME280;12423;48.768;8.850;2022-09-03T04:45:36;96574.00;;;15.83;100.00
24306;BME280;12423;48.768;8.850;2022-09-03T04:47:37;96580.03;;;15.85;100.00
24306;BME280;12423;48.768;8.850;2022-09-03T04:49:38;96574.84;;;15.75;100.00
24306;BME280;12423;48.768;8.850;2022-09-03T04:51:39;96571.66;;;15.80;100.00
24306;BME280;12423;48.768;8.850;2022-09-03T04:53:45;96577.03;;;15.80;100.00
24306;BME280;12423;48.768;8.850;2022-09-03T04:55:46;96575.72;;;15.76;100.00
24306;BME280;12423;48.768;8.850;2022-09-03T04:57:47;96588.19;;;15.60;100.00
24306;BME280;12423;48.768;8.850;2022-09-03T04:59:48;96591.22;;;15.65;100.00
24306;BME280;12423;48.768;8.850;2022-09-03T05:01:49;96589.69;;;15.71;100.00
24306;BME280;12423;48.768;8.850;2022-09-03T05:03:52;96593.22;;;15.72;100.00
24306;BME280;12423;48.768;8.850;2022-09-03T05:05:54;96589.50;;;15.73;100.00
24306;BME280;12423;48.768;8.850;2022-09-03T05:08:02;96576.03;;;15.73;100.00
24306;BME280;12423;48.768;8.850;2022-09-03T05:10:08;96572.31;;;15.74;100.00
24306;BME280;12423;48.768;8.850;2022-09-03T05:12:12;96577.72;;;15.74;100.00
24306;BME280;12423;48.768;8.850;2022-09-03T05:14:13;96578.56;;;15.74;100.00
24306;BME280;12423;48.768;8.850;2022-09-03T05:16:15;96592.06;;;15.66;100.00
24306;BME280;12423;48.768;8.850;2022-09-03T05:18:16;96600.38;;;15.48;100.00
24306;BME280;12423;48.768;8.850;2022-09-03T05:20:17;96593.59;;;15.60;100.00
24306;BME280;12423;48.768;8.850;2022-09-03T05:22:19;96594.59;;;15.68;100.00
24306;BME280;12423;48.768;8.850;2022-09-03T05:24:23;96598.94;;;15.69;100.00
24306;BME280;12423;48.768;8.850;2022-09-03T05:26:26;96604.81;;;15.72;100.00
24306;BME280;12423;48.768;8.850;2022-09-03T05:28:29;96603.63;;;15.83;100.00
24306;BME280;12423;48.768;8.850;2022-09-03T05:30:30;96604.94;;;15.87;100.00
24306;BME280;12423;48.768;8.850;2022-09-03T05:32:31;96602.03;;;15.97;100.00
24306;BME280;12423;48.768;8.850;2022-09-03T05:34:32;96594.94;;;16.04;100.00
24306;BME280;12423;48.768;8.850;2022-09-03T05:36:36;96602.16;;;16.03;100.00
24306;BME280;12423;48.768;8.850;2022-09-03T05:38:38;96602.56;;;15.92;100.00
24306;BME280;12423;48.768;8.850;2022-09-03T05:40:39;96599.50;;;15.95;100.00
24306;BME280;12423;48.768;8.850;2022-09-03T05:42:41;96607.09;;;15.92;100.00
24306;BME280;12423;48.768;8.850;2022-09-03T05:44:42;96610.97;;;15.97;100.00
24306;BME280;12423;48.768;8.850;2022-09-03T05:46:43;96618.31;;;16.03;100.00
24306;BME280;12423;48.768;8.850;2022-09-03T05:48:44;96615.97;;;16.09;100.00
24306;BME280;12423;48.768;8.850;2022-09-03T05:50:45;96618.78;;;16.15;100.00
24306;BME280;12423;48.768;8.850;2022-09-03T05:52:46;96613.53;;;16.22;100.00
24306;BME280;12423;48.768;8.850;2022-09-03T05:54:47;96618.16;;;16.28;100.00
24306;BME280;12423;48.768;8.850;2022-09-03T05:56:48;96624.91;;;16.32;100.00
24306;BME280;12423;48.768;8.850;2022-09-03T05:58:51;96621.50;;;16.38;100.00
24306;BME280;12423;48.768;8.850;2022-09-03T06:00:52;96625.16;;;16.46;100.00
24306;BME280;12423;48.768;8.850;2022-09-03T06:02:54;96615.88;;;16.48;100.00
24306;BME280;12423;48.768;8.850;2022-09-03T06:04:55;96622.75;;;16.51;100.00
24306;BME280;12423;48.768;8.850;2022-09-03T06:06:57;96626.59;;;16.56;100.00
24306;BME280;12423;48.768;8.850;2022-09-03T06:09:00;96630.41;;;16.62;100.00
24306;BME280;12423;48.768;8.850;2022-09-03T06:11:02;96619.28;;;16.65;100.00
24306;BME280;12423;48.768;8.850;2022-09-03T06:13:03;96625.63;;;16.72;100.00
24306;BME280;12423;48.768;8.850;2022-09-03T06:15:05;96630.19;;;16.72;100.00
24306;BME280;12423;48.768;8.850;2022-09-03T06:17:06;96625.25;;;16.75;100.00
24306;BME280;12423;48.768;8.850;2022-09-03T06:19:11;96626.25;;;16.74;100.00
24306;BME280;12423;48.768;8.850;2022-09-03T06:21:14;96632.81;;;16.80;100.00
24306;BME280;12423;48.768;8.850;2022-09-03T06:23:15;96635.00;;;16.85;100.00
24306;BME280;12423;48.768;8.850;2022-09-03T06:25:16;96633.78;;;16.87;100.00
24306;BME280;12423;48.768;8.850;2022-09-03T06:27:17;96639.66;;;16.91;100.00
24306;BME280;12423;48.768;8.850;2022-09-03T06:29:20;96635.28;;;16.90;100.00
24306;BME280;12423;48.768;8.850;2022-09-03T06:31:22;96633.06;;;16.93;100.00
24306;BME280;12423;48.768;8.850;2022-09-03T06:33:23;96628.13;;;16.97;100.00
24306;BME280;12423;48.768;8.850;2022-09-03T06:35:24;96639.03;;;17.04;100.00
24306;BME280;12423;48.768;8.850;2022-09-03T06:37:25;96628.34;;;17.10;100.00
24306;BME280;12423;48.768;8.850;2022-09-03T06:39:26;96636.38;;;17.19;100.00
24306;BME280;12423;48.768;8.850;2022-09-03T06:41:29;96631.44;;;17.22;100.00
24306;BME280;12423;48.768;8.850;2022-09-03T06:43:37;96630.25;;;17.25;100.00
24306;BME280;12423;48.768;8.850;2022-09-03T06:45:38;96631.06;;;17.25;100.00
24306;BME280;12423;48.768;8.850;2022-09-03T06:47:39;96626.81;;;17.31;100.00
24306;BME280;12423;48.768;8.850;2022-09-03T06:49:40;96632.09;;;17.24;100.00
24306;BME280;12423;48.768;8.850;2022-09-03T06:51:41;96628.66;;;17.30;100.00
24306;BME280;12423;48.768;8.850;2022-09-03T06:53:58;96632.78;;;17.41;100.00
24306;BME280;12423;48.768;8.850;2022-09-03T06:56:05;96635.84;;;17.38;100.00
24306;BME280;12423;48.768;8.850;2022-09-03T06:58:06;96624.22;;;17.53;100.00
24306;BME280;12423;48.768;8.850;2022-09-03T07:00:09;96625.78;;;17.62;100.00
24306;BME280;12423;48.768;8.850;2022-09-03T07:02:10;96635.09;;;17.74;100.00
24306;BME280;12423;48.768;8.850;2022-09-03T07:04:13;96627.91;;;17.81;100.00
24306;BME280;12423;48.768;8.850;2022-09-03T07:06:18;96634.56;;;17.94;100.00
24306;BME280;12423;48.768;8.850;2022-09-03T07:08:19;96626.63;;;18.07;100.00
24306;BME280;12423;48.768;8.850;2022-09-03T07:10:20;96627.41;;;18.22;100.00
24306;BME280;12423;48.768;8.850;2022-09-03T07:12:21;96625.22;;;18.33;100.00
24306;BME280;12423;48.768;8.850;2022-09-03T07:14:22;96631.19;;;18.43;100.00
24306;BME280;12423;48.768;8.850;2022-09-03T07:16:29;96623.16;;;18.50;100.00
24306;BME280;12423;48.768;8.850;2022-09-03T07:18:30;96630.88;;;18.53;100.00
24306;BME280;12423;48.768;8.850;2022-09-03T07:20:33;96633.97;;;18.50;100.00
24306;BME280;12423;48.768;8.850;2022-09-03T07:22:34;96628.06;;;18.46;100.00
24306;BME280;12423;48.768;8.850;2022-09-03T07:24:36;96624.81;;;18.51;100.00
24306;BME280;12423;48.768;8.850;2022-09-03T07:26:41;96623.59;;;18.53;100.00
24306;BME280;12423;48.768;8.850;2022-09-03T07:28:49;96625.97;;;18.63;100.00
24306;BME280;12423;48.768;8.850;2022-09-03T07:30:51;96632.66;;;18.67;100.00
24306;BME280;12423;48.768;8.850;2022-09-03T07:32:52;96632.47;;;18.69;100.00
24306;BME280;12423;48.768;8.850;2022-09-03T07:34:54;96628.44;;;18.79;100.00
24306;BME280;12423;48.768;8.850;2022-09-03T07:36:57;96633.84;;;18.79;100.00
24306;BME280;12423;48.768;8.850;2022-09-03T07:38:58;96634.22;;;18.76;100.00
24306;BME280;12423;48.768;8.850;2022-09-03T07:41:00;96633.16;;;18.77;100.00
24306;BME280;12423;48.768;8.850;2022-09-03T07:43:02;96630.94;;;18.81;100.00
24306;BME280;12423;48.768;8.850;2022-09-03T07:45:06;96636.34;;;18.81;100.00
24306;BME280;12423;48.768;8.850;2022-09-03T07:47:09;96631.41;;;18.85;100.00
24306;BME280;12423;48.768;8.850;2022-09-03T07:49:10;96640.56;;;18.84;100.00
24306;BME280;12423;48.768;8.850;2022-09-03T07:51:11;96645.00;;;18.91;100.00
24306;BME280;12423;48.768;8.850;2022-09-03T07:53:15;96640.09;;;19.02;100.00
24306;BME280;12423;48.768;8.850;2022-09-03T07:55:16;96634.69;;;19.02;100.00
24306;BME280;12423;48.768;8.850;2022-09-03T07:57:18;96641.63;;;19.11;100.00
24306;BME280;12423;48.768;8.850;2022-09-03T07:59:19;96644.22;;;19.19;100.00
24306;BME280;12423;48.768;8.850;2022-09-03T08:01:23;96651.66;;;19.17;100.00
24306;BME280;12423;48.768;8.850;2022-09-03T08:03:24;96654.97;;;19.12;100.00
24306;BME280;12423;48.768;8.850;2022-09-03T08:05:25;96653.47;;;19.10;100.00
24306;BME280;12423;48.768;8.850;2022-09-03T08:07:29;96648.75;;;19.19;100.00
24306;BME280;12423;48.768;8.850;2022-09-03T08:09:30;96655.31;;;19.31;100.00
24306;BME280;12423;48.768;8.850;2022-09-03T08:11:35;96668.44;;;19.27;100.00
24306;BME280;12423;48.768;8.850;2022-09-03T08:13:39;96674.63;;;19.21;100.00
24306;BME280;12423;48.768;8.850;2022-09-03T08:15:40;96671.28;;;19.19;100.00
24306;BME280;12423;48.768;8.850;2022-09-03T08:17:44;96674.22;;;19.24;100.00
24306;BME280;12423;48.768;8.850;2022-09-03T08:19:45;96673.41;;;19.24;100.00
24306;BME280;12423;48.768;8.850;2022-09-03T08:21:47;96680.09;;;19.28;100.00
24306;BME280;12423;48.768;8.850;2022-09-03T08:23:50;96680.09;;;19.28;100.00
24306;BME280;12423;48.768;8.850;2022-09-03T08:26:00;96673.44;;;19.30;100.00
24306;BME280;12423;48.768;8.850;2022-09-03T08:28:02;96668.03;;;19.30;100.00
24306;BME280;12423;48.768;8.850;2022-09-03T08:30:03;96667.19;;;19.30;100.00
24306;BME280;12423;48.768;8.850;2022-09-03T08:32:05;96670.22;;;19.48;100.00
24306;BME280;12423;48.768;8.850;2022-09-03T08:34:06;96664.56;;;19.43;100.00
24306;BME280;12423;48.768;8.850;2022-09-03T08:36:16;96674.44;;;19.51;100.00
24306;BME280;12423;48.768;8.850;2022-09-03T08:38:18;96667.22;;;19.37;100.00
24306;BME280;12423;48.768;8.850;2022-09-03T08:40:19;96671.47;;;19.46;100.00
24306;BME280;12423;48.768;8.850;2022-09-03T08:42:57;96678.31;;;19.42;100.00
24306;BME280;12423;48.768;8.850;2022-09-03T08:44:57;96681.91;;;19.49;100.00
24306;BME280;12423;48.768;8.850;2022-09-03T08:49:13;96691.97;;;19.83;100.00
24306;BME280;12423;48.768;8.850;2022-09-03T08:51:19;96694.72;;;19.90;100.00
24306;BME280;12423;48.768;8.850;2022-09-03T08:53:39;96687.44;;;19.91;100.00
24306;BME280;12423;48.768;8.850;2022-09-03T08:56:02;96697.28;;;19.98;100.00
24306;BME280;12423;48.768;8.850;2022-09-03T08:58:17;96693.56;;;20.13;100.00
24306;BME280;12423;48.768;8.850;2022-09-03T09:00:20;96700.22;;;20.03;100.00
24306;BME280;12423;48.768;8.850;2022-09-03T09:04:52;96701.16;;;20.24;100.00
24306;BME280;12423;48.768;8.850;2022-09-03T09:07:10;96705.16;;;20.35;100.00
24306;BME280;12423;48.768;8.850;2022-09-03T09:12:00;96700.44;;;20.57;100.00
24306;BME280;12423;48.768;8.850;2022-09-03T09:14:22;96699.28;;;20.73;100.00
24306;BME280;12423;48.768;8.850;2022-09-03T09:21:10;96698.91;;;20.89;100.00
24306;BME280;12423;48.768;8.850;2022-09-03T09:24:03;96694.72;;;21.00;100.00
24306;BME280;12423;48.768;8.850;2022-09-03T09:25:47;96693.91;;;21.06;100.00
24306;BME280;12423;48.768;8.850;2022-09-03T09:29:53;96685.56;;;21.08;100.00
24306;BME280;12423;48.768;8.850;2022-09-03T09:31:55;96683.47;;;21.16;100.00
24306;BME280;12423;48.768;8.850;2022-09-03T09:34:03;96683.66;;;20.95;98.96
24306;BME280;12423;48.768;8.850;2022-09-03T09:36:09;96691.00;;;21.21;99.38
24306;BME280;12423;48.768;8.850;2022-09-03T09:38:12;96687.66;;;20.99;97.89
24306;BME280;12423;48.768;8.850;2022-09-03T09:42:31;96688.84;;;20.83;98.83
24306;BME280;12423;48.768;8.850;2022-09-03T09:44:33;96699.34;;;20.99;99.61
24306;BME280;12423;48.768;8.850;2022-09-03T09:46:36;96694.31;;;21.16;99.84
24306;BME280;12423;48.768;8.850;2022-09-03T09:50:48;96691.84;;;21.28;96.39
24306;BME280;12423;48.768;8.850;2022-09-03T09:53:02;96696.44;;;21.28;96.00
24306;BME280;12423;48.768;8.850;2022-09-03T09:55:08;96700.84;;;21.29;96.37
24306;BME280;12423;48.768;8.850;2022-09-03T09:57:17;96690.16;;;21.34;96.36
24306;BME280;12423;48.768;8.850;2022-09-03T09:59:20;96700.41;;;21.32;95.21
24306;BME280;12423;48.768;8.850;2022-09-03T10:01:22;96702.28;;;21.25;95.61
24306;BME280;12423;48.768;8.850;2022-09-03T10:03:25;96694.53;;;21.15;97.29
24306;BME280;12423;48.768;8.850;2022-09-03T10:05:30;96694.13;;;21.31;95.58
24306;BME280;12423;48.768;8.850;2022-09-03T10:07:33;96684.75;;;21.61;95.94
24306;BME280;12423;48.768;8.850;2022-09-03T10:09:34;96686.00;;;21.65;94.58
24306;BME280;12423;48.768;8.850;2022-09-03T10:11:36;96687.00;;;21.84;94.35
24306;BME280;12423;48.768;8.850;2022-09-03T10:13:42;96684.69;;;21.87;91.97
24306;BME280;12423;48.768;8.850;2022-09-03T10:16:00;96680.22;;;22.20;91.98
24306;BME280;12423;48.768;8.850;2022-09-03T10:20:48;96684.69;;;21.87;91.38
24306;BME280;12423;48.768;8.850;2022-09-03T10:23:08;96682.66;;;21.63;92.65
24306;BME280;12423;48.768;8.850;2022-09-03T10:25:13;96673.84;;;21.74;92.94
24306;BME280;12423;48.768;8.850;2022-09-03T10:27:16;96667.69;;;22.12;92.17
24306;BME280;12423;48.768;8.850;2022-09-03T10:29:22;96673.94;;;22.33;90.29
24306;BME280;12423;48.768;8.850;2022-09-03T10:31:38;96663.75;;;22.60;90.16
24306;BME280;12423;48.768;8.850;2022-09-03T10:36:10;96671.28;;;22.64;88.34
24306;BME280;12423;48.768;8.850;2022-09-03T10:38:26;96669.88;;;22.87;89.42
24306;BME280;12423;48.768;8.850;2022-09-03T10:41:12;96666.81;;;22.70;87.20
24306;BME280;12423;48.768;8.850;2022-09-03T10:45:22;96655.78;;;22.97;87.88
24306;BME280;12423;48.768;8.850;2022-09-03T10:47:43;96661.13;;;23.17;84.57
24306;BME280;12423;48.768;8.850;2022-09-03T10:50:29;96657.75;;;23.22;84.18
24306;BME280;12423;48.768;8.850;2022-09-03T10:55:20;96663.56;;;23.25;82.39
24306;BME280;12423;48.768;8.850;2022-09-03T10:57:31;96666.16;;;23.64;82.60
24306;BME280;12423;48.768;8.850;2022-09-03T11:06:08;96653.72;;;24.12;76.99
24306;BME280;12423;48.768;8.850;2022-09-03T11:08:23;96650.41;;;23.91;77.25
24306;BME280;12423;48.768;8.850;2022-09-03T11:10:31;96652.84;;;23.99;78.45
24306;BME280;12423;48.768;8.850;2022-09-03T11:12:42;96644.81;;;23.86;78.06
24306;BME280;12423;48.768;8.850;2022-09-03T11:14:50;96641.94;;;23.99;78.74
24306;BME280;12423;48.768;8.850;2022-09-03T11:16:58;96645.69;;;23.98;78.86
24306;BME280;12423;48.768;8.850;2022-09-03T11:19:06;96646.69;;;23.85;79.83
24306;BME280;12423;48.768;8.850;2022-09-03T11:21:13;96652.53;;;23.64;78.45
24306;BME280;12423;48.768;8.850;2022-09-03T11:23:16;96652.44;;;23.52;77.82
24306;BME280;12423;48.768;8.850;2022-09-03T11:25:29;96649.63;;;23.15;78.85
24306;BME280;12423;48.768;8.850;2022-09-03T11:30:04;96645.28;;;23.00;85.46
24306;BME280;12423;48.768;8.850;2022-09-03T11:32:09;96635.69;;;22.91;84.30
24306;BME280;12423;48.768;8.850;2022-09-03T11:34:31;96632.38;;;22.89;85.15
24306;BME280;12423;48.768;8.850;2022-09-03T11:36:37;96635.97;;;22.83;85.49
24306;BME280;12423;48.768;8.850;2022-09-03T11:38:38;96638.34;;;22.73;86.57
24306;BME280;12423;48.768;8.850;2022-09-03T11:40:56;96640.94;;;22.61;86.80
24306;BME280;12423;48.768;8.850;2022-09-03T11:47:41;96647.78;;;22.25;91.24
24306;BME280;12423;48.768;8.850;2022-09-03T11:49:46;96640.53;;;21.99;97.35
24306;BME280;12423;48.768;8.850;2022-09-03T11:52:03;96656.97;;;21.59;100.00
24306;BME280;12423;48.768;8.850;2022-09-03T11:56:20;96656.28;;;20.76;100.00
24306;BME280;12423;48.768;8.850;2022-09-03T12:00:26;96652.63;;;19.94;100.00
24306;BME280;12423;48.768;8.850;2022-09-03T12:02:31;96675.72;;;19.83;100.00
24306;BME280;12423;48.768;8.850;2022-09-03T12:04:43;96682.78;;;19.56;100.00
24306;BME280;12423;48.768;8.850;2022-09-03T12:12:07;96704.16;;;19.16;100.00
24306;BME280;12423;48.768;8.850;2022-09-03T12:14:26;96702.22;;;19.10;100.00